Station History


Daily Summary for March 2, 2012 Units:  English    Metric   Both
« Previous Day
Next Day »
Daily Weekly Monthly Yearly Custom
  High: Low: Average:
Temperature: 64.5 °F 36.9 °F 49.1 °F
Dew Point: 47.7 °F 35.2 °F 41.7 °F
Humidity: 96% 45% 78%
Wind Speed: 4.6mph 0.0mph 2.5mph
Wind Gust: 4.6mph - -
Wind- - WSW
Pressure: 30.34 in 30.17 in -
Precipitation: 0.00 in    
Historical Graphs
 
 
Tabular Data for March 2, 2012
Time Temperature Dew Point Pressure Wind Wind Speed Wind Gust Humidity Rainfall Rate (Hourly)
00:02 40.0 °F 37.6 °F 30.17 in Calm     91% 0.00 in
00:07 39.9 °F 37.5 °F 30.17 in Calm     91% 0.00 in
00:12 39.8 °F 37.4 °F 30.17 in Calm     91% 0.00 in
00:17 40.1 °F 38.0 °F 30.17 in Calm     92% 0.00 in
00:22 40.0 °F 37.9 °F 30.17 in Calm     92% 0.00 in
00:27 39.9 °F 37.8 °F 30.18 in Calm     92% 0.00 in
00:32 40.3 °F 38.4 °F 30.18 in Calm     93% 0.00 in
00:37 40.6 °F 38.5 °F 30.18 in Calm     92% 0.00 in
00:42 40.9 °F 38.8 °F 30.18 in Calm     92% 0.00 in
00:47 41.1 °F 38.7 °F 30.18 in Calm     91% 0.00 in
00:52 41.4 °F 38.7 °F 30.19 in Calm     90% 0.00 in
00:57 41.6 °F 38.9 °F 30.19 in Calm     90% 0.00 in
01:02 41.8 °F 39.1 °F 30.19 in Calm     90% 0.00 in
01:07 42.0 °F 39.3 °F 30.19 in Calm     90% 0.00 in
01:12 42.3 °F 39.3 °F 30.19 in Calm     89% 0.00 in
01:17 42.6 °F 39.6 °F 30.19 in Calm     89% 0.00 in
01:22 42.9 °F 39.6 °F 30.19 in Calm     88% 0.00 in
01:27 43.1 °F 39.5 °F 30.19 in Calm     87% 0.00 in
01:32 43.2 °F 39.6 °F 30.19 in Calm     87% 0.00 in
01:37 43.4 °F 39.8 °F 30.19 in Calm     87% 0.00 in
01:42 43.5 °F 39.6 °F 30.19 in Calm     86% 0.00 in
01:47 43.6 °F 39.7 °F 30.19 in Calm     86% 0.00 in
01:52 43.7 °F 39.5 °F 30.19 in Calm     85% 0.00 in
01:57 43.8 °F 39.6 °F 30.19 in Calm     85% 0.00 in
02:02 43.9 °F 39.7 °F 30.20 in Calm     85% 0.00 in
02:07 44.0 °F 39.8 °F 30.20 in Calm     85% 0.00 in
02:12 44.1 °F 39.9 °F 30.20 in Calm     85% 0.00 in
02:17 44.2 °F 40.0 °F 30.20 in Calm     85% 0.00 in
02:22 44.3 °F 40.1 °F 30.20 in Calm     85% 0.00 in
02:27 44.3 °F 40.1 °F 30.20 in Calm     85% 0.00 in
02:32 44.4 °F 40.2 °F 30.20 in Calm     85% 0.00 in
02:37 44.4 °F 40.2 °F 30.20 in Calm     85% 0.00 in
02:42 44.4 °F 40.2 °F 30.20 in Calm     85% 0.00 in
02:47 44.4 °F 40.2 °F 30.20 in Calm     85% 0.00 in
02:52 44.4 °F 40.2 °F 30.20 in Calm     85% 0.00 in
02:57 44.3 °F 40.1 °F 30.20 in Calm     85% 0.00 in
03:02 44.1 °F 39.6 °F 30.20 in Calm     84% 0.00 in
03:07 43.7 °F 39.5 °F 30.20 in Calm     85% 0.00 in
03:12 43.3 °F 39.1 °F 30.20 in Calm     85% 0.00 in
03:17 42.8 °F 38.6 °F 30.20 in Calm     85% 0.00 in
03:22 42.4 °F 38.5 °F 30.20 in Calm     86% 0.00 in
03:27 42.1 °F 38.5 °F 30.21 in Calm     87% 0.00 in
03:32 41.7 °F 38.1 °F 30.21 in Calm     87% 0.00 in
03:37 41.5 °F 38.2 °F 30.21 in Calm     88% 0.00 in
03:42 41.3 °F 38.6 °F 30.21 in Calm     90% 0.00 in
03:47 41.2 °F 38.2 °F 30.21 in Calm     89% 0.00 in
03:52 41.0 °F 38.0 °F 30.21 in Calm     89% 0.00 in
03:57 40.7 °F 38.0 °F 30.22 in Calm     90% 0.00 in
04:02 40.4 °F 37.4 °F 30.22 in Calm     89% 0.00 in
04:07 40.2 °F 37.5 °F 30.22 in Calm     90% 0.00 in
04:12 39.9 °F 37.2 °F 30.22 in Calm     90% 0.00 in
04:17 39.6 °F 36.9 °F 30.22 in Calm     90% 0.00 in
04:22 39.6 °F 37.5 °F 30.23 in Calm     92% 0.00 in
04:27 39.5 °F 37.1 °F 30.22 in Calm     91% 0.00 in
04:32 39.3 °F 36.9 °F 30.22 in Calm     91% 0.00 in
04:37 39.1 °F 36.7 °F 30.23 in Calm     91% 0.00 in
04:42 38.9 °F 36.5 °F 30.23 in Calm     91% 0.00 in
04:47 38.9 °F 37.0 °F 30.23 in Calm     93% 0.00 in
04:52 38.9 °F 36.8 °F 30.24 in Calm     92% 0.00 in
04:57 39.0 °F 37.1 °F 30.24 in Calm     93% 0.00 in
05:02 38.8 °F 36.7 °F 30.24 in Calm     92% 0.00 in
05:07 38.4 °F 36.3 °F 30.24 in Calm     92% 0.00 in
05:12 38.1 °F 36.0 °F 30.24 in Calm     92% 0.00 in
05:18 37.9 °F 35.8 °F 30.25 in Calm     92% 0.00 in
05:23 37.7 °F 35.6 °F 30.25 in Calm     92% 0.00 in
05:28 37.5 °F 35.4 °F 30.25 in Calm     92% 0.00 in
05:32 37.3 °F 35.2 °F 30.25 in Calm     92% 0.00 in
05:37 37.3 °F 35.5 °F 30.25 in Calm     93% 0.00 in
05:42 37.4 °F 35.8 °F 30.26 in Calm     94% 0.00 in
05:47 37.5 °F 35.9 °F 30.26 in Calm     94% 0.00 in
05:52 37.3 °F 35.5 °F 30.26 in Calm     93% 0.00 in
05:57 37.2 °F 35.4 °F 30.26 in Calm     93% 0.00 in
06:02 37.1 °F 35.3 °F 30.26 in Calm     93% 0.00 in
06:07 37.2 °F 35.6 °F 30.26 in Calm     94% 0.00 in
06:13 37.3 °F 35.7 °F 30.27 in Calm     94% 0.00 in
06:18 37.2 °F 35.6 °F 30.27 in Calm     94% 0.00 in
06:23 37.1 °F 35.5 °F 30.27 in Calm     94% 0.00 in
06:28 37.0 °F 35.4 °F 30.27 in Calm     94% 0.00 in
06:33 36.9 °F 35.3 °F 30.28 in Calm     94% 0.00 in
06:38 36.9 °F 35.3 °F 30.28 in Calm     94% 0.00 in
06:43 37.1 °F 35.5 °F 30.29 in Calm     94% 0.00 in
06:48 37.5 °F 36.2 °F 30.29 in Calm     95% 0.00 in
06:53 38.0 °F 36.7 °F 30.29 in Calm     95% 0.00 in
06:58 38.6 °F 37.6 °F 30.29 in Calm     96% 0.00 in
07:03 39.2 °F 38.2 °F 30.29 in Calm     96% 0.00 in
07:08 39.8 °F 38.8 °F 30.29 in Calm     96% 0.00 in
07:13 40.4 °F 39.4 °F 30.30 in Calm     96% 0.00 in
07:18 40.8 °F 39.7 °F 30.30 in Calm     96% 0.00 in
07:23 41.2 °F 40.1 °F 30.30 in Calm     96% 0.00 in
07:28 41.6 °F 40.0 °F 30.30 in Calm     94% 0.00 in
07:33 41.9 °F 40.0 °F 30.30 in Calm     93% 0.00 in
07:38 42.3 °F 40.1 °F 30.31 in SW 1.1 mph   92% 0.00 in
07:43 42.7 °F 40.5 °F 30.31 in Calm     92% 0.00 in
07:48 43.0 °F 40.6 °F 30.31 in Calm     91% 0.00 in
07:53 43.4 °F 41.2 °F 30.31 in Calm     92% 0.00 in
07:58 43.7 °F 41.2 °F 30.31 in Calm   0.1 mph 91% 0.00 in
08:03 44.1 °F 41.4 °F 30.31 in Calm     90% 0.00 in
08:08 44.5 °F 41.5 °F 30.31 in SW 1.1 mph   89% 0.00 in
08:13 45.1 °F 41.8 °F 30.31 in Calm     88% 0.00 in
08:18 45.5 °F 41.9 °F 30.31 in WSW 1.1 mph 1.1 mph 87% 0.00 in
08:23 45.7 °F 42.1 °F 30.31 in SW 1.1 mph 1.1 mph 87% 0.00 in
08:28 46.0 °F 42.3 °F 30.31 in SSW 1.1 mph 1.1 mph 87% 0.00 in
08:33 46.3 °F 42.3 °F 30.32 in SW 1.1 mph   86% 0.00 in
08:38 46.5 °F 42.5 °F 30.32 in WSW 1.1 mph 1.1 mph 86% 0.00 in
08:43 46.9 °F 42.9 °F 30.32 in SW 2.3 mph   86% 0.00 in
08:48 47.3 °F 43.3 °F 30.33 in SW 1.1 mph 1.1 mph 86% 0.00 in
08:53 47.6 °F 43.6 °F 30.33 in West 1.1 mph 1.1 mph 86% 0.00 in
08:58 47.9 °F 43.9 °F 30.33 in WSW 2.3 mph   86% 0.00 in
09:03 48.0 °F 44.0 °F 30.33 in Calm   0.1 mph 86% 0.00 in
09:08 48.3 °F 44.0 °F 30.33 in NNW 3.5 mph 3.5 mph 85% 0.00 in
09:13 48.4 °F 44.4 °F 30.33 in NW 1.1 mph   86% 0.00 in
09:18 49.1 °F 45.1 °F 30.33 in WNW 1.1 mph 1.1 mph 86% 0.00 in
09:23 49.5 °F 45.2 °F 30.33 in WSW 2.3 mph 2.3 mph 85% 0.00 in
09:28 49.5 °F 45.2 °F 30.33 in SSW 2.3 mph   85% 0.00 in
09:34 49.5 °F 45.2 °F 30.33 in WNW 1.1 mph   85% 0.00 in
09:39 49.6 °F 45.0 °F 30.33 in North 3.5 mph 3.5 mph 84% 0.00 in
09:44 49.5 °F 45.2 °F 30.33 in NNW 2.3 mph 2.3 mph 85% 0.00 in
09:49 49.8 °F 45.5 °F 30.33 in NNW 3.5 mph 3.5 mph 85% 0.00 in
09:54 50.3 °F 45.6 °F 30.34 in SW 1.1 mph   84% 0.00 in
09:59 50.7 °F 45.7 °F 30.34 in WNW 2.0 mph 2.0 mph 83% 0.00 in
10:04 50.8 °F 45.8 °F 30.34 in SW 1.1 mph   83% 0.00 in
10:09 51.3 °F 46.0 °F 30.33 in West 1.1 mph 1.1 mph 82% 0.00 in
10:14 51.3 °F 45.7 °F 30.33 in North 3.5 mph 3.5 mph 81% 0.00 in
10:19 51.3 °F 46.0 °F 30.34 in NNW 2.3 mph 2.3 mph 82% 0.00 in
10:24 51.8 °F 46.2 °F 30.34 in North 2.3 mph 2.3 mph 81% 0.00 in
10:29 52.3 °F 46.3 °F 30.34 in ENE 1.1 mph 1.1 mph 80% 0.00 in
10:34 52.8 °F 46.8 °F 30.33 in West 1.1 mph 1.1 mph 80% 0.00 in
10:39 53.4 °F 47.0 °F 30.34 in SSE 1.1 mph 1.1 mph 79% 0.00 in
10:44 54.1 °F 47.0 °F 30.33 in SW 2.0 mph 2.0 mph 77% 0.00 in
10:49 54.2 °F 46.4 °F 30.33 in South 3.5 mph 3.5 mph 75% 0.00 in
10:54 53.9 °F 46.5 °F 30.33 in NW 2.3 mph 2.3 mph 76% 0.00 in
10:59 54.4 °F 47.0 °F 30.33 in West 3.5 mph 3.5 mph 76% 0.00 in
11:04 54.8 °F 47.0 °F 30.33 in West 1.1 mph 1.1 mph 75% 0.00 in
11:09 55.0 °F 47.2 °F 30.33 in SSE 2.3 mph 2.3 mph 75% 0.00 in
11:14 55.1 °F 46.6 °F 30.33 in WSW 3.5 mph 3.5 mph 73% 0.00 in
11:19 55.4 °F 47.2 °F 30.33 in SSW 1.1 mph 1.1 mph 74% 0.00 in
11:24 56.1 °F 47.6 °F 30.33 in NNW 3.5 mph 3.5 mph 73% 0.00 in
11:29 56.7 °F 46.6 °F 30.33 in SW 3.5 mph 3.5 mph 69% 0.00 in
11:34 57.0 °F 47.3 °F 30.33 in NW 2.0 mph 2.0 mph 70% 0.00 in
11:39 56.8 °F 46.7 °F 30.33 in NNW 3.0 mph 3.0 mph 69% 0.00 in
11:44 56.5 °F 46.8 °F 30.33 in South 3.5 mph 3.5 mph 70% 0.00 in
11:49 56.7 °F 46.6 °F 30.33 in NNW 2.3 mph 2.3 mph 69% 0.00 in
11:54 57.4 °F 47.3 °F 30.33 in NNE 4.6 mph 4.6 mph 69% 0.00 in
12:00 57.3 °F 46.8 °F 30.33 in WNW 4.6 mph 4.6 mph 68% 0.00 in
12:05 57.5 °F 47.4 °F 30.33 in NNW 3.5 mph 3.5 mph 69% 0.00 in
12:10 58.1 °F 47.6 °F 30.32 in North 3.5 mph 3.5 mph 68% 0.00 in
12:15 58.4 °F 46.7 °F 30.32 in NNE 4.6 mph 4.6 mph 65% 0.00 in
12:20 58.6 °F 46.9 °F 30.32 in South 3.5 mph 3.5 mph 65% 0.00 in
12:25 58.9 °F 47.2 °F 30.32 in NW 3.5 mph 3.5 mph 65% 0.00 in
12:30 59.5 °F 47.7 °F 30.32 in ESE 2.3 mph 2.3 mph 65% 0.00 in
12:35 59.8 °F 47.2 °F 30.31 in North 1.1 mph 1.1 mph 63% 0.00 in
12:40 60.3 °F 46.4 °F 30.31 in NNW 3.5 mph 3.5 mph 60% 0.00 in
12:45 59.6 °F 46.1 °F 30.31 in WNW 2.3 mph 2.3 mph 61% 0.00 in
12:50 60.2 °F 45.8 °F 30.31 in South 3.5 mph 3.5 mph 59% 0.00 in
12:55 60.6 °F 45.7 °F 30.30 in NNW 3.5 mph 3.5 mph 58% 0.00 in
13:00 60.9 °F 46.5 °F 30.31 in West 1.1 mph 1.1 mph 59% 0.00 in
13:05 61.0 °F 45.2 °F 30.30 in NNW 3.5 mph 3.5 mph 56% 0.00 in
13:10 61.2 °F 44.9 °F 30.30 in NW 3.5 mph 3.5 mph 55% 0.00 in
13:15 61.4 °F 45.6 °F 30.30 in North 2.3 mph 2.3 mph 56% 0.00 in
13:20 61.3 °F 44.0 °F 30.31 in NW 3.5 mph 3.5 mph 53% 0.00 in
13:25 61.6 °F 45.7 °F 30.31 in NNE 2.3 mph 2.3 mph 56% 0.00 in
13:30 62.1 °F 44.8 °F 30.30 in SE 3.5 mph 3.5 mph 53% 0.00 in
13:35 62.2 °F 45.3 °F 30.30 in NE 2.3 mph 2.3 mph 54% 0.00 in
13:40 62.4 °F 45.0 °F 30.30 in WSW 2.3 mph 2.3 mph 53% 0.00 in
13:45 62.2 °F 44.3 °F 30.30 in NW 2.3 mph 2.3 mph 52% 0.00 in
13:50 62.3 °F 44.9 °F 30.30 in NW 2.3 mph 2.3 mph 53% 0.00 in
13:55 62.7 °F 44.3 °F 30.30 in North 2.0 mph 2.0 mph 51% 0.00 in
14:00 62.6 °F 45.2 °F 30.30 in WNW 3.5 mph 3.5 mph 53% 0.00 in
14:05 62.9 °F 45.0 °F 30.30 in WNW 3.5 mph 3.5 mph 52% 0.00 in
14:07 62.9 °F 44.5 °F 30.30 in SW 2.3 mph 2.3 mph 51% 0.00 in
14:13 63.2 °F 45.8 °F 30.30 in WSW 2.3 mph 2.3 mph 53% 0.00 in
14:18 62.6 °F 43.7 °F 30.29 in NNW 3.5 mph 3.5 mph 50% 0.00 in
14:23 62.6 °F 44.7 °F 30.29 in SW 1.1 mph 1.1 mph 52% 0.00 in
14:28 63.0 °F 44.1 °F 30.29 in NNE 2.0 mph 2.0 mph 50% 0.00 in
14:33 63.1 °F 44.2 °F 30.29 in West 3.0 mph 3.0 mph 50% 0.00 in
14:38 63.2 °F 44.8 °F 30.29 in SSW 2.3 mph 2.3 mph 51% 0.00 in
14:43 63.6 °F 44.6 °F 30.29 in West 2.3 mph 2.3 mph 50% 0.00 in
14:48 63.5 °F 44.5 °F 30.29 in North 3.5 mph 3.5 mph 50% 0.00 in
14:53 63.1 °F 44.7 °F 30.29 in NW 4.6 mph 4.6 mph 51% 0.00 in
14:59 62.9 °F 44.5 °F 30.29 in WNW 2.3 mph 2.4 mph 51% 0.00 in
15:04 62.8 °F 44.4 °F 30.29 in West 2.3 mph 2.3 mph 51% 0.00 in
15:09 63.2 °F 44.8 °F 30.29 in WNW 2.3 mph 2.3 mph 51% 0.00 in
15:14 63.5 °F 44.5 °F 30.28 in West 2.0 mph 2.0 mph 50% 0.00 in
15:19 63.6 °F 44.6 °F 30.28 in West 3.5 mph 3.5 mph 50% 0.00 in
15:24 64.1 °F 44.0 °F 30.28 in WNW 2.3 mph 2.3 mph 48% 0.00 in
15:29 64.4 °F 44.3 °F 30.28 in SE 2.3 mph 2.3 mph 48% 0.00 in
15:34 64.5 °F 43.8 °F 30.28 in SW 3.5 mph 3.5 mph 47% 0.00 in
15:39 64.3 °F 43.1 °F 30.28 in NW 3.5 mph 3.5 mph 46% 0.00 in
15:44 64.3 °F 43.1 °F 30.28 in WSW 3.5 mph 3.5 mph 46% 0.00 in
15:49 64.4 °F 43.2 °F 30.27 in South 2.3 mph 2.3 mph 46% 0.00 in
15:54 64.4 °F 43.2 °F 30.27 in West 3.5 mph 3.5 mph 46% 0.00 in
15:59 64.3 °F 42.5 °F 30.27 in WNW 3.0 mph 3.0 mph 45% 0.00 in
16:04 63.9 °F 43.3 °F 30.27 in West 3.5 mph 3.5 mph 47% 0.00 in
16:09 63.9 °F 42.7 °F 30.27 in NW 3.5 mph 3.5 mph 46% 0.00 in
16:14 63.7 °F 43.1 °F 30.27 in West 3.5 mph 3.5 mph 47% 0.00 in
16:19 63.6 °F 43.0 °F 30.27 in South 2.3 mph 2.3 mph 47% 0.00 in
16:24 63.5 °F 43.4 °F 30.27 in NW 4.6 mph 4.6 mph 48% 0.00 in
16:29 63.0 °F 43.0 °F 30.27 in ESE 3.5 mph 3.5 mph 48% 0.00 in
16:34 62.4 °F 43.0 °F 30.27 in North 3.5 mph 3.5 mph 49% 0.00 in
16:39 62.2 °F 42.8 °F 30.27 in NW 3.5 mph 3.5 mph 49% 0.00 in
16:44 61.9 °F 43.0 °F 30.27 in NE 2.3 mph 2.3 mph 50% 0.00 in
16:49 61.8 °F 42.4 °F 30.27 in NNW 3.5 mph 3.5 mph 49% 0.00 in
16:54 61.1 °F 42.3 °F 30.27 in WSW 3.5 mph 3.5 mph 50% 0.00 in
16:59 60.5 °F 42.8 °F 30.27 in SW 3.5 mph 3.5 mph 52% 0.00 in
17:04 60.2 °F 42.0 °F 30.27 in WNW 1.1 mph 1.1 mph 51% 0.00 in
17:09 59.8 °F 42.6 °F 30.27 in NNE 2.3 mph 2.3 mph 53% 0.00 in
17:14 59.4 °F 42.7 °F 30.27 in NNW 2.3 mph 2.3 mph 54% 0.00 in
17:19 59.1 °F 42.9 °F 30.27 in WNW 2.3 mph 2.3 mph 55% 0.00 in
17:24 58.7 °F 42.6 °F 30.27 in NW 2.3 mph 2.3 mph 55% 0.00 in
17:29 58.4 °F 42.8 °F 30.27 in SW 3.5 mph 3.5 mph 56% 0.00 in
17:34 58.1 °F 42.5 °F 30.27 in WNW 1.1 mph   56% 0.00 in
17:39 57.8 °F 42.7 °F 30.27 in North 1.1 mph 1.1 mph 57% 0.00 in
17:44 57.5 °F 42.8 °F 30.27 in WSW 1.1 mph 1.1 mph 58% 0.00 in
17:49 57.1 °F 42.9 °F 30.27 in Calm     59% 0.00 in
17:54 56.7 °F 43.4 °F 30.27 in West 1.1 mph 1.1 mph 61% 0.00 in
17:59 56.3 °F 43.4 °F 30.27 in Calm     62% 0.00 in
18:04 55.9 °F 43.1 °F 30.28 in Calm     62% 0.00 in
18:09 55.5 °F 43.1 °F 30.27 in Calm     63% 0.00 in
18:14 55.2 °F 43.2 °F 30.28 in West 1.1 mph   64% 0.00 in
18:19 55.0 °F 43.0 °F 30.28 in Calm     64% 0.00 in
18:24 54.8 °F 43.3 °F 30.28 in West 1.1 mph   65% 0.00 in
18:29 54.5 °F 43.4 °F 30.28 in Calm     66% 0.00 in
18:34 54.2 °F 43.1 °F 30.28 in Calm     66% 0.00 in
18:39 53.8 °F 43.1 °F 30.28 in Calm     67% 0.00 in
18:44 53.3 °F 43.4 °F 30.29 in Calm     69% 0.00 in
18:49 52.8 °F 43.3 °F 30.29 in Calm     70% 0.00 in
18:54 52.3 °F 43.2 °F 30.29 in Calm     71% 0.00 in
18:59 51.9 °F 43.2 °F 30.29 in Calm     72% 0.00 in
19:04 51.5 °F 43.1 °F 30.29 in Calm     73% 0.00 in
19:09 51.1 °F 43.1 °F 30.29 in Calm     74% 0.00 in
19:14 50.7 °F 43.1 °F 30.29 in Calm     75% 0.00 in
19:19 50.4 °F 43.1 °F 30.29 in Calm     76% 0.00 in
19:24 50.2 °F 43.3 °F 30.29 in Calm     77% 0.00 in
19:29 50.0 °F 43.1 °F 30.29 in Calm     77% 0.00 in
19:34 49.7 °F 42.8 °F 30.29 in Calm     77% 0.00 in
19:39 49.5 °F 42.9 °F 30.29 in Calm     78% 0.00 in
19:44 49.2 °F 42.6 °F 30.29 in Calm     78% 0.00 in
19:49 48.8 °F 42.2 °F 30.29 in Calm     78% 0.00 in
19:54 48.4 °F 42.2 °F 30.29 in Calm     79% 0.00 in
19:59 48.1 °F 42.2 °F 30.29 in Calm     80% 0.00 in
20:04 47.9 °F 42.7 °F 30.29 in Calm     82% 0.00 in
20:09 47.8 °F 42.6 °F 30.30 in Calm     82% 0.00 in
20:14 47.5 °F 42.0 °F 30.30 in Calm     81% 0.00 in
20:19 47.2 °F 42.0 °F 30.30 in Calm     82% 0.00 in
20:24 46.9 °F 42.3 °F 30.30 in Calm     84% 0.00 in
20:29 46.8 °F 42.2 °F 30.30 in Calm     84% 0.00 in
20:34 46.7 °F 41.8 °F 30.30 in Calm     83% 0.00 in
20:39 46.4 °F 41.5 °F 30.31 in Calm     83% 0.00 in
20:44 46.0 °F 41.1 °F 30.31 in Calm     83% 0.00 in
20:49 45.6 °F 41.0 °F 30.31 in Calm     84% 0.00 in
20:54 45.5 °F 41.3 °F 30.31 in Calm     85% 0.00 in
20:59 45.6 °F 42.0 °F 30.32 in Calm     87% 0.00 in
21:00 45.7 °F 42.1 °F 30.32 in Calm     87% 0.00 in
21:01 45.7 °F 42.1 °F 30.32 in Calm     87% 0.00 in
21:06 45.6 °F 41.7 °F 30.32 in Calm     86% 0.00 in
21:11 45.6 °F 42.0 °F 30.32 in Calm     87% 0.00 in
21:16 45.3 °F 41.4 °F 30.32 in Calm     86% 0.00 in
21:21 45.0 °F 41.1 °F 30.32 in Calm     86% 0.00 in
21:26 44.7 °F 40.8 °F 30.32 in Calm     86% 0.00 in
21:31 44.4 °F 40.8 °F 30.32 in Calm     87% 0.00 in
21:36 44.2 °F 40.9 °F 30.32 in Calm     88% 0.00 in
21:41 44.1 °F 40.8 °F 30.32 in Calm     88% 0.00 in
21:46 44.1 °F 41.1 °F 30.32 in Calm     89% 0.00 in
21:51 43.9 °F 40.6 °F 30.32 in Calm     88% 0.00 in
21:56 43.6 °F 40.3 °F 30.32 in Calm     88% 0.00 in
22:01 43.4 °F 40.1 °F 30.32 in Calm     88% 0.00 in
22:06 43.2 °F 40.2 °F 30.32 in Calm     89% 0.00 in
22:11 43.0 °F 40.0 °F 30.32 in Calm     89% 0.00 in
22:16 43.1 °F 40.4 °F 30.32 in Calm     90% 0.00 in
22:21 43.3 °F 40.8 °F 30.33 in Calm     91% 0.00 in
22:26 43.2 °F 40.5 °F 30.33 in Calm     90% 0.00 in
22:31 42.9 °F 40.2 °F 30.33 in Calm     90% 0.00 in
22:36 42.7 °F 40.3 °F 30.33 in Calm     91% 0.00 in
22:41 42.5 °F 39.8 °F 30.33 in Calm     90% 0.00 in
22:46 42.3 °F 39.6 °F 30.33 in Calm     90% 0.00 in
22:51 42.1 °F 39.7 °F 30.33 in Calm     91% 0.00 in
22:56 41.9 °F 39.5 °F 30.33 in Calm     91% 0.00 in
23:01 41.9 °F 39.7 °F 30.33 in Calm     92% 0.00 in
23:06 42.0 °F 39.6 °F 30.33 in Calm     91% 0.00 in
23:11 41.8 °F 39.4 °F 30.33 in Calm     91% 0.00 in
23:16 41.6 °F 39.2 °F 30.33 in Calm     91% 0.00 in
23:21 41.4 °F 39.0 °F 30.33 in Calm     91% 0.00 in
23:26 41.4 °F 39.3 °F 30.33 in Calm     92% 0.00 in
23:31 41.5 °F 39.3 °F 30.32 in Calm     92% 0.00 in
23:36 41.5 °F 39.3 °F 30.32 in Calm     92% 0.00 in
23:41 41.7 °F 39.8 °F 30.32 in Calm     93% 0.00 in
23:46 41.8 °F 39.6 °F 30.32 in Calm     92% 0.00 in
23:51 41.6 °F 39.4 °F 30.32 in Calm     92% 0.00 in
23:56 41.5 °F 39.3 °F 30.32 in Calm     92% 0.00 in
Compliments of Weather Underground